sensor_id;sensor_type;location;lat;lon;timestamp;pressure;altitude;pressure_sealevel;temperature;humidity
35507;BME280;36461;52.018;21.036;2023-02-17T00:01:32;100606.96;;;2.54;88.73
35507;BME280;36461;52.018;21.036;2023-02-17T00:04:00;100606.79;;;2.55;88.65
35507;BME280;36461;52.018;21.036;2023-02-17T00:06:29;100608.34;;;2.57;88.41
35507;BME280;36461;52.018;21.036;2023-02-17T00:08:59;100606.63;;;2.59;88.59
35507;BME280;36461;52.018;21.036;2023-02-17T00:11:28;100607.16;;;2.61;88.73
35507;BME280;36461;52.018;21.036;2023-02-17T00:13:57;100608.87;;;2.62;88.57
35507;BME280;36461;52.018;21.036;2023-02-17T00:16:27;100607.50;;;2.62;88.42
35507;BME280;36461;52.018;21.036;2023-02-17T00:19:00;100606.16;;;2.65;88.66
35507;BME280;36461;52.018;21.036;2023-02-17T00:21:30;100599.17;;;2.68;88.36
35507;BME280;36461;52.018;21.036;2023-02-17T00:23:58;100597.13;;;2.72;88.66
35507;BME280;36461;52.018;21.036;2023-02-17T00:26:27;100592.35;;;2.73;88.42
35507;BME280;36461;52.018;21.036;2023-02-17T00:28:57;100596.30;;;2.76;88.58
35507;BME280;36461;52.018;21.036;2023-02-17T00:31:25;100591.86;;;2.79;88.50
35507;BME280;36461;52.018;21.036;2023-02-17T00:33:55;100590.67;;;2.79;88.26
35507;BME280;36461;52.018;21.036;2023-02-17T00:36:24;100586.57;;;2.82;88.87
35507;BME280;36461;52.018;21.036;2023-02-17T00:38:55;100586.05;;;2.84;88.58
35507;BME280;36461;52.018;21.036;2023-02-17T00:41:27;100581.95;;;2.88;88.30
35507;BME280;36461;52.018;21.036;2023-02-17T00:43:57;100579.73;;;2.88;88.30
35507;BME280;36461;52.018;21.036;2023-02-17T00:46:26;100577.16;;;2.89;88.15
35507;BME280;36461;52.018;21.036;2023-02-17T00:48:54;100573.58;;;2.88;88.40
35507;BME280;36461;52.018;21.036;2023-02-17T00:51:23;100570.34;;;2.90;88.31
35507;BME280;36461;52.018;21.036;2023-02-17T00:53:52;100573.42;;;2.92;88.24
35507;BME280;36461;52.018;21.036;2023-02-17T00:56:19;100571.20;;;2.93;87.97
35507;BME280;36461;52.018;21.036;2023-02-17T00:58:47;100565.55;;;2.93;88.13
35507;BME280;36461;52.018;21.036;2023-02-17T01:01:16;100568.30;;;2.93;87.93
35507;BME280;36461;52.018;21.036;2023-02-17T01:03:45;100563.85;;;2.95;88.08
35507;BME280;36461;52.018;21.036;2023-02-17T01:06:22;100566.08;;;2.96;88.26
35507;BME280;36461;52.018;21.036;2023-02-17T01:08:51;100566.08;;;2.95;87.76
35507;BME280;36461;52.018;21.036;2023-02-17T01:11:26;100563.34;;;2.94;87.96
35507;BME280;36461;52.018;21.036;2023-02-17T01:13:57;100562.13;;;2.93;87.82
35507;BME280;36461;52.018;21.036;2023-02-17T01:16:29;100554.11;;;2.91;87.92
35507;BME280;36461;52.018;21.036;2023-02-17T01:18:58;100553.58;;;2.89;88.00
35507;BME280;36461;52.018;21.036;2023-02-17T01:21:28;100548.63;;;2.88;87.72
35507;BME280;36461;52.018;21.036;2023-02-17T01:23:59;100546.23;;;2.84;87.72
35507;BME280;36461;52.018;21.036;2023-02-17T01:26:29;100546.22;;;2.83;87.83
35507;BME280;36461;52.018;21.036;2023-02-17T01:29:01;100545.20;;;2.83;87.74
35507;BME280;36461;52.018;21.036;2023-02-17T01:31:30;100541.95;;;2.83;87.98
35507;BME280;36461;52.018;21.036;2023-02-17T01:34:02;100539.90;;;2.82;87.87
35507;BME280;36461;52.018;21.036;2023-02-17T01:36:31;100538.70;;;2.83;87.75
35507;BME280;36461;52.018;21.036;2023-02-17T01:38:59;100531.01;;;2.81;87.81
35507;BME280;36461;52.018;21.036;2023-02-17T01:41:28;100529.99;;;2.82;87.82
35507;BME280;36461;52.018;21.036;2023-02-17T01:44:14;100528.61;;;2.84;87.78
35507;BME280;36461;52.018;21.036;2023-02-17T01:46:46;100525.04;;;2.85;87.88
35507;BME280;36461;52.018;21.036;2023-02-17T01:49:35;100519.73;;;2.86;87.90
35507;BME280;36461;52.018;21.036;2023-02-17T01:52:18;100514.27;;;2.86;87.90
35507;BME280;36461;52.018;21.036;2023-02-17T01:54:52;100510.51;;;2.87;88.09
35507;BME280;36461;52.018;21.036;2023-02-17T01:57:24;100508.11;;;2.89;87.85
35507;BME280;36461;52.018;21.036;2023-02-17T01:59:54;100504.54;;;2.92;87.91
35507;BME280;36461;52.018;21.036;2023-02-17T02:02:22;100508.63;;;2.95;87.69
35507;BME280;36461;52.018;21.036;2023-02-17T02:04:53;100510.02;;;2.98;88.03
35507;BME280;36461;52.018;21.036;2023-02-17T02:07:31;100513.94;;;3.00;87.72
35507;BME280;36461;52.018;21.036;2023-02-17T02:10:01;100514.79;;;3.02;87.66
35507;BME280;36461;52.018;21.036;2023-02-17T02:12:33;100513.77;;;3.03;87.42
35507;BME280;36461;52.018;21.036;2023-02-17T02:15:07;100514.29;;;3.05;87.50
35507;BME280;36461;52.018;21.036;2023-02-17T02:24:00;100504.71;;;3.12;87.16
35507;BME280;36461;52.018;21.036;2023-02-17T02:29:53;100501.80;;;3.19;87.38
35507;BME280;36461;52.018;21.036;2023-02-17T02:32:47;100501.13;;;3.21;87.29
35507;BME280;36461;52.018;21.036;2023-02-17T02:35:21;100497.87;;;3.23;87.12
35507;BME280;36461;52.018;21.036;2023-02-17T02:38:05;100498.73;;;3.24;87.10
35507;BME280;36461;52.018;21.036;2023-02-17T02:40:42;100498.56;;;3.27;87.18
35507;BME280;36461;52.018;21.036;2023-02-17T02:43:13;100495.65;;;3.30;87.00
35507;BME280;36461;52.018;21.036;2023-02-17T02:45:41;100497.00;;;3.34;86.99
35507;BME280;36461;52.018;21.036;2023-02-17T02:48:09;100497.01;;;3.36;87.12
35507;BME280;36461;52.018;21.036;2023-02-17T02:50:55;100500.26;;;3.40;87.05
35507;BME280;36461;52.018;21.036;2023-02-17T02:54:15;100498.54;;;3.44;86.92
35507;BME280;36461;52.018;21.036;2023-02-17T03:02:15;100481.77;;;3.51;86.92
35507;BME280;36461;52.018;21.036;2023-02-17T03:07:53;100478.35;;;3.51;86.83
35507;BME280;36461;52.018;21.036;2023-02-17T03:23:42;100489.63;;;3.60;86.63
35507;BME280;36461;52.018;21.036;2023-02-17T03:26:10;100485.85;;;3.63;86.85
35507;BME280;36461;52.018;21.036;2023-02-17T03:28:39;100482.25;;;3.64;86.60
35507;BME280;36461;52.018;21.036;2023-02-17T03:31:07;100478.14;;;3.67;86.93
35507;BME280;36461;52.018;21.036;2023-02-17T03:33:35;100481.05;;;3.70;86.88
35507;BME280;36461;52.018;21.036;2023-02-17T03:36:03;100482.75;;;3.73;86.55
35507;BME280;36461;52.018;21.036;2023-02-17T03:38:32;100488.21;;;3.78;86.71
35507;BME280;36461;52.018;21.036;2023-02-17T03:40:59;100490.44;;;3.81;86.58
35507;BME280;36461;52.018;21.036;2023-02-17T03:43:27;100503.60;;;3.85;86.39
35507;BME280;36461;52.018;21.036;2023-02-17T03:45:55;100498.96;;;3.87;86.72
35507;BME280;36461;52.018;21.036;2023-02-17T03:48:23;100498.62;;;3.89;86.94
35507;BME280;36461;52.018;21.036;2023-02-17T03:50:51;100500.67;;;3.92;87.18
35507;BME280;36461;52.018;21.036;2023-02-17T03:53:19;100494.68;;;3.94;87.11
35507;BME280;36461;52.018;21.036;2023-02-17T03:55:47;100494.66;;;3.94;87.03
35507;BME280;36461;52.018;21.036;2023-02-17T03:58:15;100492.45;;;3.93;86.91
35507;BME280;36461;52.018;21.036;2023-02-17T04:00:43;100492.44;;;3.95;87.22
35507;BME280;36461;52.018;21.036;2023-02-17T04:03:11;100490.21;;;3.97;87.21
35507;BME280;36461;52.018;21.036;2023-02-17T04:05:38;100496.53;;;3.97;87.43
35507;BME280;36461;52.018;21.036;2023-02-17T04:08:06;100489.87;;;3.99;87.50
35507;BME280;36461;52.018;21.036;2023-02-17T04:10:34;100482.65;;;4.02;87.39
35507;BME280;36461;52.018;21.036;2023-02-17T04:13:02;100476.48;;;4.04;87.72
35507;BME280;36461;52.018;21.036;2023-02-17T04:15:30;100473.05;;;4.07;87.84
35507;BME280;36461;52.018;21.036;2023-02-17T04:17:59;100472.02;;;4.11;88.04
35507;BME280;36461;52.018;21.036;2023-02-17T04:20:27;100473.19;;;4.15;87.93
35507;BME280;36461;52.018;21.036;2023-02-17T04:22:55;100468.23;;;4.15;87.61
35507;BME280;36461;52.018;21.036;2023-02-17T04:25:23;100462.23;;;4.15;87.96
35507;BME280;36461;52.018;21.036;2023-02-17T04:27:50;100450.57;;;4.17;87.92
35507;BME280;36461;52.018;21.036;2023-02-17T04:30:18;100464.10;;;4.19;88.10
35507;BME280;36461;52.018;21.036;2023-02-17T04:37:20;100457.05;;;4.21;88.23
35507;BME280;36461;52.018;21.036;2023-02-17T04:39:48;100458.08;;;4.21;88.40
35507;BME280;36461;52.018;21.036;2023-02-17T04:42:16;100460.31;;;4.22;88.14
35507;BME280;36461;52.018;21.036;2023-02-17T04:44:44;100466.48;;;4.22;87.91
35507;BME280;36461;52.018;21.036;2023-02-17T04:47:12;100472.81;;;4.22;88.16
35507;BME280;36461;52.018;21.036;2023-02-17T04:49:40;100462.70;;;4.22;88.12
35507;BME280;36461;52.018;21.036;2023-02-17T04:52:08;100458.94;;;4.23;88.38
35507;BME280;36461;52.018;21.036;2023-02-17T04:54:36;100451.73;;;4.24;88.32
35507;BME280;36461;52.018;21.036;2023-02-17T04:57:04;100437.01;;;4.23;88.25
35507;BME280;36461;52.018;21.036;2023-02-17T04:59:32;100428.63;;;4.21;88.36
35507;BME280;36461;52.018;21.036;2023-02-17T05:02:00;100430.85;;;4.21;88.16
35507;BME280;36461;52.018;21.036;2023-02-17T05:04:28;100436.15;;;4.21;88.40
35507;BME280;36461;52.018;21.036;2023-02-17T05:06:56;100436.51;;;4.20;88.35
35507;BME280;36461;52.018;21.036;2023-02-17T05:09:24;100441.30;;;4.18;88.53
35507;BME280;36461;52.018;21.036;2023-02-17T05:11:51;100439.43;;;4.18;88.39
35507;BME280;36461;52.018;21.036;2023-02-17T05:14:20;100438.92;;;4.17;88.50
35507;BME280;36461;52.018;21.036;2023-02-17T05:16:47;100436.86;;;4.19;88.60
35507;BME280;36461;52.018;21.036;2023-02-17T05:19:15;100431.19;;;4.22;88.69
35507;BME280;36461;52.018;21.036;2023-02-17T05:21:43;100432.91;;;4.23;88.56
35507;BME280;36461;52.018;21.036;2023-02-17T05:24:11;100433.05;;;4.24;88.73
35507;BME280;36461;52.018;21.036;2023-02-17T05:26:39;100431.17;;;4.24;89.01
35507;BME280;36461;52.018;21.036;2023-02-17T05:29:07;100423.98;;;4.24;88.92
35507;BME280;36461;52.018;21.036;2023-02-17T05:31:35;100419.35;;;4.25;88.83
35507;BME280;36461;52.018;21.036;2023-02-17T05:34:03;100418.66;;;4.28;89.01
35507;BME280;36461;52.018;21.036;2023-02-17T05:36:31;100420.02;;;4.30;88.85
35507;BME280;36461;52.018;21.036;2023-02-17T05:38:59;100422.77;;;4.29;88.87
35507;BME280;36461;52.018;21.036;2023-02-17T05:41:27;100421.23;;;4.25;88.75
35507;BME280;36461;52.018;21.036;2023-02-17T05:43:55;100419.88;;;4.25;88.79
35507;BME280;36461;52.018;21.036;2023-02-17T05:46:23;100411.99;;;4.23;88.71
35507;BME280;36461;52.018;21.036;2023-02-17T05:48:51;100405.99;;;4.22;88.86
35507;BME280;36461;52.018;21.036;2023-02-17T05:51:18;100402.23;;;4.22;88.79
35507;BME280;36461;52.018;21.036;2023-02-17T05:58:20;100408.05;;;4.22;88.99
35507;BME280;36461;52.018;21.036;2023-02-17T06:00:48;100406.88;;;4.21;89.09
35507;BME280;36461;52.018;21.036;2023-02-17T06:03:16;100403.77;;;4.23;89.27
35507;BME280;36461;52.018;21.036;2023-02-17T06:05:44;100406.34;;;4.26;89.14
35507;BME280;36461;52.018;21.036;2023-02-17T06:12:46;100400.34;;;4.24;89.04
35507;BME280;36461;52.018;21.036;2023-02-17T06:15:14;100404.11;;;4.26;89.12
35507;BME280;36461;52.018;21.036;2023-02-17T06:22:18;100408.70;;;4.28;88.95
35507;BME280;36461;52.018;21.036;2023-02-17T06:24:46;100407.52;;;4.27;88.74
35507;BME280;36461;52.018;21.036;2023-02-17T06:27:14;100405.48;;;4.27;89.08
35507;BME280;36461;52.018;21.036;2023-02-17T06:29:43;100401.02;;;4.27;89.19
35507;BME280;36461;52.018;21.036;2023-02-17T06:32:11;100402.02;;;4.29;88.86
35507;BME280;36461;52.018;21.036;2023-02-17T06:34:39;100403.55;;;4.31;88.86
35507;BME280;36461;52.018;21.036;2023-02-17T06:37:06;100401.66;;;4.33;88.78
35507;BME280;36461;52.018;21.036;2023-02-17T06:39:34;100403.19;;;4.32;88.72
35507;BME280;36461;52.018;21.036;2023-02-17T06:42:02;100405.76;;;4.34;88.63
35507;BME280;36461;52.018;21.036;2023-02-17T06:44:30;100405.05;;;4.36;88.74
35507;BME280;36461;52.018;21.036;2023-02-17T06:46:58;100399.71;;;4.41;88.86
35507;BME280;36461;52.018;21.036;2023-02-17T06:49:26;100399.69;;;4.46;88.77
35507;BME280;36461;52.018;21.036;2023-02-17T06:51:54;100402.59;;;4.48;88.75
35507;BME280;36461;52.018;21.036;2023-02-17T06:54:22;100405.82;;;4.52;88.67
35507;BME280;36461;52.018;21.036;2023-02-17T06:56:50;100403.75;;;4.55;88.38
35507;BME280;36461;52.018;21.036;2023-02-17T06:59:17;100388.48;;;4.58;88.16
35507;BME280;36461;52.018;21.036;2023-02-17T07:01:45;100386.56;;;4.60;88.31
35507;BME280;36461;52.018;21.036;2023-02-17T07:04:16;100386.70;;;4.64;88.10
35507;BME280;36461;52.018;21.036;2023-02-17T07:06:44;100390.77;;;4.69;87.88
35507;BME280;36461;52.018;21.036;2023-02-17T07:09:12;100384.40;;;4.72;87.84
35507;BME280;36461;52.018;21.036;2023-02-17T07:11:40;100378.39;;;4.74;87.62
35507;BME280;36461;52.018;21.036;2023-02-17T07:14:09;100379.89;;;4.80;87.82
35507;BME280;36461;52.018;21.036;2023-02-17T07:16:37;100379.31;;;4.87;87.91
35507;BME280;36461;52.018;21.036;2023-02-17T07:19:06;100383.73;;;4.92;87.65
35507;BME280;36461;52.018;21.036;2023-02-17T07:21:34;100378.89;;;4.97;87.55
35507;BME280;36461;52.018;21.036;2023-02-17T07:24:02;100378.15;;;5.03;87.40
35507;BME280;36461;52.018;21.036;2023-02-17T07:26:30;100382.52;;;5.11;87.62
35507;BME280;36461;52.018;21.036;2023-02-17T07:28:58;100379.32;;;5.23;87.68
35507;BME280;36461;52.018;21.036;2023-02-17T07:31:27;100363.40;;;5.36;87.56
35507;BME280;36461;52.018;21.036;2023-02-17T07:33:56;100362.91;;;5.48;87.25
35507;BME280;36461;52.018;21.036;2023-02-17T07:36:24;100364.15;;;5.59;87.06
35507;BME280;36461;52.018;21.036;2023-02-17T07:38:51;100367.31;;;5.67;86.86
35507;BME280;36461;52.018;21.036;2023-02-17T07:41:21;100371.32;;;5.77;86.87
35507;BME280;36461;52.018;21.036;2023-02-17T07:43:55;100375.31;;;5.87;86.57
35507;BME280;36461;52.018;21.036;2023-02-17T07:46:25;100371.79;;;5.94;86.39
35507;BME280;36461;52.018;21.036;2023-02-17T07:48:55;100367.96;;;6.00;86.03
35507;BME280;36461;52.018;21.036;2023-02-17T07:51:25;100363.09;;;6.04;85.87
35507;BME280;36461;52.018;21.036;2023-02-17T07:53:53;100352.95;;;6.16;85.62
35507;BME280;36461;52.018;21.036;2023-02-17T07:56:22;100357.23;;;6.30;85.64
35507;BME280;36461;52.018;21.036;2023-02-17T07:58:50;100361.84;;;6.44;85.42
35507;BME280;36461;52.018;21.036;2023-02-17T08:01:23;100362.02;;;6.53;84.79
35507;BME280;36461;52.018;21.036;2023-02-17T08:03:52;100358.24;;;6.65;84.64
35507;BME280;36461;52.018;21.036;2023-02-17T08:06:22;100355.52;;;6.72;84.04
35507;BME280;36461;52.018;21.036;2023-02-17T08:08:51;100357.45;;;6.81;83.85
35507;BME280;36461;52.018;21.036;2023-02-17T08:11:39;100350.85;;;6.94;83.65
35507;BME280;36461;52.018;21.036;2023-02-17T08:14:27;100346.57;;;7.03;83.29
35507;BME280;36461;52.018;21.036;2023-02-17T08:16:57;100348.80;;;7.02;82.53
35507;BME280;36461;52.018;21.036;2023-02-17T08:19:26;100348.81;;;7.02;82.57
35507;BME280;36461;52.018;21.036;2023-02-17T08:22:14;100354.06;;;7.07;82.39
35507;BME280;36461;52.018;21.036;2023-02-17T08:24:43;100352.50;;;7.08;81.97
35507;BME280;36461;52.018;21.036;2023-02-17T08:27:13;100350.73;;;7.11;82.08
35507;BME280;36461;52.018;21.036;2023-02-17T08:29:42;100344.60;;;7.16;81.92
35507;BME280;36461;52.018;21.036;2023-02-17T08:32:13;100346.24;;;7.20;81.54
35507;BME280;36461;52.018;21.036;2023-02-17T08:34:41;100343.34;;;7.19;81.15
35507;BME280;36461;52.018;21.036;2023-02-17T08:37:10;100337.41;;;7.14;80.99
35507;BME280;36461;52.018;21.036;2023-02-17T08:39:38;100339.64;;;7.14;80.91
35507;BME280;36461;52.018;21.036;2023-02-17T08:42:06;100336.16;;;7.17;80.92
35507;BME280;36461;52.018;21.036;2023-02-17T08:44:35;100328.64;;;7.22;80.95
35507;BME280;36461;52.018;21.036;2023-02-17T08:47:07;100320.46;;;7.27;80.63
35507;BME280;36461;52.018;21.036;2023-02-17T08:49:40;100326.49;;;7.35;80.54
35507;BME280;36461;52.018;21.036;2023-02-17T08:52:11;100320.21;;;7.40;80.50
35507;BME280;36461;52.018;21.036;2023-02-17T08:54:41;100324.48;;;7.50;80.51
35507;BME280;36461;52.018;21.036;2023-02-17T08:57:13;100323.06;;;7.61;80.33
35507;BME280;36461;52.018;21.036;2023-02-17T08:59:45;100324.46;;;7.67;79.85
35507;BME280;36461;52.018;21.036;2023-02-17T09:02:20;100323.05;;;7.70;79.03
35507;BME280;36461;52.018;21.036;2023-02-17T09:04:52;100322.86;;;7.70;79.31
35507;BME280;36461;52.018;21.036;2023-02-17T09:07:24;100320.75;;;7.72;79.20
35507;BME280;36461;52.018;21.036;2023-02-17T09:09:55;100325.59;;;7.71;79.35
35507;BME280;36461;52.018;21.036;2023-02-17T09:12:27;100327.79;;;7.65;79.07
35507;BME280;36461;52.018;21.036;2023-02-17T09:15:00;100327.28;;;7.57;79.02
35507;BME280;36461;52.018;21.036;2023-02-17T09:17:32;100327.67;;;7.46;78.98
35507;BME280;36461;52.018;21.036;2023-02-17T09:20:03;100324.05;;;7.38;79.24
35507;BME280;36461;52.018;21.036;2023-02-17T09:22:45;100322.55;;;7.35;79.50
35507;BME280;36461;52.018;21.036;2023-02-17T09:25:16;100319.45;;;7.35;79.68
35507;BME280;36461;52.018;21.036;2023-02-17T09:27:48;100319.86;;;7.40;80.10
35507;BME280;36461;52.018;21.036;2023-02-17T09:30:19;100315.64;;;7.45;80.15
35507;BME280;36461;52.018;21.036;2023-02-17T09:32:51;100314.71;;;7.48;80.24
35507;BME280;36461;52.018;21.036;2023-02-17T09:35:23;100308.57;;;7.53;80.18
35507;BME280;36461;52.018;21.036;2023-02-17T09:37:56;100301.20;;;7.61;79.81
35507;BME280;36461;52.018;21.036;2023-02-17T09:41:00;100297.70;;;7.71;79.99
35507;BME280;36461;52.018;21.036;2023-02-17T09:43:33;100298.30;;;7.83;79.85
35507;BME280;36461;52.018;21.036;2023-02-17T09:52:28;100290.95;;;8.10;79.14
35507;BME280;36461;52.018;21.036;2023-02-17T09:55:03;100280.08;;;8.11;78.73
35507;BME280;36461;52.018;21.036;2023-02-17T09:57:36;100272.98;;;8.20;79.02
35507;BME280;36461;52.018;21.036;2023-02-17T10:00:11;100268.75;;;8.24;78.70
35507;BME280;36461;52.018;21.036;2023-02-17T10:02:49;100265.99;;;8.23;78.63
35507;BME280;36461;52.018;21.036;2023-02-17T10:05:24;100264.57;;;8.26;78.67
35507;BME280;36461;52.018;21.036;2023-02-17T10:08:09;100262.30;;;8.19;78.39
35507;BME280;36461;52.018;21.036;2023-02-17T10:10:53;100254.52;;;8.13;78.08
35507;BME280;36461;52.018;21.036;2023-02-17T10:13:24;100251.73;;;8.07;78.19
35507;BME280;36461;52.018;21.036;2023-02-17T10:15:58;100247.76;;;8.08;78.36
35507;BME280;36461;52.018;21.036;2023-02-17T10:18:36;100249.36;;;8.12;78.35
35507;BME280;36461;52.018;21.036;2023-02-17T10:21:10;100248.55;;;8.10;78.28
35507;BME280;36461;52.018;21.036;2023-02-17T10:23:40;100243.91;;;8.02;78.41
35507;BME280;36461;52.018;21.036;2023-02-17T10:26:25;100243.90;;;7.96;78.56
35507;BME280;36461;52.018;21.036;2023-02-17T10:29:11;100244.98;;;7.87;78.63
35507;BME280;36461;52.018;21.036;2023-02-17T10:31:45;100248.34;;;7.82;78.88
35507;BME280;36461;52.018;21.036;2023-02-17T10:34:35;100246.33;;;7.80;79.11
35507;BME280;36461;52.018;21.036;2023-02-17T10:37:13;100246.50;;;7.80;79.46
35507;BME280;36461;52.018;21.036;2023-02-17T10:39:49;100246.64;;;7.82;79.81
35507;BME280;36461;52.018;21.036;2023-02-17T10:42:27;100245.95;;;7.82;80.04
35507;BME280;36461;52.018;21.036;2023-02-17T10:45:14;100243.45;;;7.78;80.25
35507;BME280;36461;52.018;21.036;2023-02-17T10:47:45;100239.85;;;7.70;80.40
35507;BME280;36461;52.018;21.036;2023-02-17T10:50:19;100230.87;;;7.63;80.77
35507;BME280;36461;52.018;21.036;2023-02-17T10:52:50;100223.05;;;7.58;81.10
35507;BME280;36461;52.018;21.036;2023-02-17T10:58:17;100210.80;;;7.59;82.18
35507;BME280;36461;52.018;21.036;2023-02-17T11:00:52;100202.55;;;7.58;82.00
35507;BME280;36461;52.018;21.036;2023-02-17T11:03:23;100198.70;;;7.53;82.06
35507;BME280;36461;52.018;21.036;2023-02-17T11:05:59;100198.88;;;7.46;82.10
35507;BME280;36461;52.018;21.036;2023-02-17T11:08:53;100190.30;;;7.44;82.48
35507;BME280;36461;52.018;21.036;2023-02-17T11:11:28;100187.23;;;7.50;82.91
35507;BME280;36461;52.018;21.036;2023-02-17T11:14:18;100179.27;;;7.60;83.08
35507;BME280;36461;52.018;21.036;2023-02-17T11:16:55;100168.59;;;7.68;83.38
35507;BME280;36461;52.018;21.036;2023-02-17T11:21:56;100159.48;;;7.73;83.55
35507;BME280;36461;52.018;21.036;2023-02-17T11:24:26;100154.54;;;7.79;83.61
35507;BME280;36461;52.018;21.036;2023-02-17T11:26:59;100151.78;;;7.79;83.45
35507;BME280;36461;52.018;21.036;2023-02-17T11:29:28;100140.92;;;7.79;83.73
35507;BME280;36461;52.018;21.036;2023-02-17T11:32:07;100133.83;;;7.87;83.87
35507;BME280;36461;52.018;21.036;2023-02-17T11:34:40;100124.59;;;7.98;83.81
35507;BME280;36461;52.018;21.036;2023-02-17T11:39:42;100111.98;;;8.19;84.03
35507;BME280;36461;52.018;21.036;2023-02-17T11:42:15;100111.74;;;8.28;83.92
35507;BME280;36461;52.018;21.036;2023-02-17T11:44:44;100102.55;;;8.36;83.96
35507;BME280;36461;52.018;21.036;2023-02-17T11:50:19;100088.64;;;8.54;83.67
35507;BME280;36461;52.018;21.036;2023-02-17T11:55:56;100076.38;;;8.55;83.05
35507;BME280;36461;52.018;21.036;2023-02-17T11:58:55;100071.77;;;8.53;82.88
35507;BME280;36461;52.018;21.036;2023-02-17T12:04:32;100061.48;;;8.44;82.85
35507;BME280;36461;52.018;21.036;2023-02-17T12:10:06;100050.52;;;8.41;83.13
35507;BME280;36461;52.018;21.036;2023-02-17T12:12:56;100047.23;;;8.41;83.26
35507;BME280;36461;52.018;21.036;2023-02-17T12:24:42;100018.51;;;8.33;83.25
35507;BME280;36461;52.018;21.036;2023-02-17T12:27:47;100008.80;;;8.29;83.12
35507;BME280;36461;52.018;21.036;2023-02-17T12:30:45;100003.80;;;8.22;83.12
35507;BME280;36461;52.018;21.036;2023-02-17T12:33:37;99994.59;;;8.19;83.63
35507;BME280;36461;52.018;21.036;2023-02-17T12:36:12;99981.35;;;8.18;83.58
35507;BME280;36461;52.018;21.036;2023-02-17T12:38:48;99973.60;;;8.18;83.73
35507;BME280;36461;52.018;21.036;2023-02-17T12:41:25;99967.61;;;8.17;83.85
35507;BME280;36461;52.018;21.036;2023-02-17T12:44:00;99954.14;;;8.17;84.04
35507;BME280;36461;52.018;21.036;2023-02-17T12:46:42;99948.28;;;8.17;84.07
35507;BME280;36461;52.018;21.036;2023-02-17T12:52:16;99940.02;;;8.17;84.11
35507;BME280;36461;52.018;21.036;2023-02-17T12:55:14;99937.30;;;8.15;84.14
35507;BME280;36461;52.018;21.036;2023-02-17T12:57:51;99940.87;;;8.11;84.23
35507;BME280;36461;52.018;21.036;2023-02-17T13:00:28;99937.45;;;8.04;84.20
35507;BME280;36461;52.018;21.036;2023-02-17T13:02:58;99943.60;;;8.00;84.38
35507;BME280;36461;52.018;21.036;2023-02-17T13:05:37;99936.96;;;7.98;84.48
35507;BME280;36461;52.018;21.036;2023-02-17T13:08:19;99930.98;;;7.96;84.82
35507;BME280;36461;52.018;21.036;2023-02-17T13:11:00;99927.61;;;7.93;84.90
35507;BME280;36461;52.018;21.036;2023-02-17T13:13:31;99928.10;;;7.88;85.06
35507;BME280;36461;52.018;21.036;2023-02-17T13:16:11;99919.73;;;7.86;85.31
35507;BME280;36461;52.018;21.036;2023-02-17T13:18:42;99912.53;;;7.84;85.47
35507;BME280;36461;52.018;21.036;2023-02-17T13:21:26;99908.77;;;7.83;85.71
35507;BME280;36461;52.018;21.036;2023-02-17T13:24:06;99915.67;;;7.82;85.63
35507;BME280;36461;52.018;21.036;2023-02-17T13:26:41;99909.00;;;7.81;85.95
35507;BME280;36461;52.018;21.036;2023-02-17T13:29:20;99902.56;;;7.77;86.06
35507;BME280;36461;52.018;21.036;2023-02-17T13:32:03;99892.91;;;7.77;86.47
35507;BME280;36461;52.018;21.036;2023-02-17T13:34:38;99884.36;;;7.75;86.63
35507;BME280;36461;52.018;21.036;2023-02-17T13:40:26;99871.84;;;7.73;86.96
35507;BME280;36461;52.018;21.036;2023-02-17T13:42:56;99877.16;;;7.74;87.43
35507;BME280;36461;52.018;21.036;2023-02-17T13:45:28;99877.30;;;7.69;87.41
35507;BME280;36461;52.018;21.036;2023-02-17T13:47:59;99880.14;;;7.66;87.40
35507;BME280;36461;52.018;21.036;2023-02-17T13:50:37;99875.66;;;7.66;87.64
35507;BME280;36461;52.018;21.036;2023-02-17T13:56:00;99868.40;;;7.67;88.03
35507;BME280;36461;52.018;21.036;2023-02-17T13:58:38;99867.58;;;7.66;87.90
35507;BME280;36461;52.018;21.036;2023-02-17T14:01:18;99868.64;;;7.65;88.16
35507;BME280;36461;52.018;21.036;2023-02-17T14:03:50;99865.11;;;7.61;88.41
35507;BME280;36461;52.018;21.036;2023-02-17T14:06:39;99854.63;;;7.61;88.29
35507;BME280;36461;52.018;21.036;2023-02-17T14:09:28;99853.70;;;7.57;88.26
35507;BME280;36461;52.018;21.036;2023-02-17T14:12:02;99849.73;;;7.58;88.62
35507;BME280;36461;52.018;21.036;2023-02-17T14:14:33;99845.92;;;7.58;88.68
35507;BME280;36461;52.018;21.036;2023-02-17T14:17:07;99839.03;;;7.58;88.73
35507;BME280;36461;52.018;21.036;2023-02-17T14:19:44;99837.69;;;7.57;88.59
35507;BME280;36461;52.018;21.036;2023-02-17T14:22:29;99831.38;;;7.55;89.09
35507;BME280;36461;52.018;21.036;2023-02-17T14:25:25;99828.73;;;7.57;89.12
35507;BME280;36461;52.018;21.036;2023-02-17T14:27:48;99817.77;;;7.55;89.32
35507;BME280;36461;52.018;21.036;2023-02-17T14:35:35;99799.95;;;7.52;89.44
35507;BME280;36461;52.018;21.036;2023-02-17T14:38:08;99792.13;;;7.48;89.43
35507;BME280;36461;52.018;21.036;2023-02-17T14:40:37;99788.61;;;7.45;89.54
35507;BME280;36461;52.018;21.036;2023-02-17T14:43:06;99779.20;;;7.43;89.66
35507;BME280;36461;52.018;21.036;2023-02-17T14:45:34;99770.42;;;7.43;89.83
35507;BME280;36461;52.018;21.036;2023-02-17T14:48:03;99762.31;;;7.44;89.96
35507;BME280;36461;52.018;21.036;2023-02-17T14:50:32;99758.54;;;7.44;89.96
35507;BME280;36461;52.018;21.036;2023-02-17T14:53:01;99748.25;;;7.42;89.95
35507;BME280;36461;52.018;21.036;2023-02-17T14:55:36;99746.41;;;7.40;90.12
35507;BME280;36461;52.018;21.036;2023-02-17T14:58:05;99744.35;;;7.39;90.23
35507;BME280;36461;52.018;21.036;2023-02-17T15:00:33;99734.89;;;7.39;90.11